Glouster Point, Virginia
Current Conditions -  °F | °C
As of 1:54 AM on Tuesday 21 Oct 2014 (Local Time) from KPHF Reporting Station
Clear Clear  
Wind Chill: 62°   Ceiling: Unl
Heat Index: 62°   Visibility: 10mi
Dew Point: 55°   Wind: 9mph
Humidity: 78%   Direction: 220°SW
Pressure: 29.95"   Gusts: NA
Location:  37.2577°N, 76.4965°W
Report Text: KPHF 210554Z 22008KT 10SM CLR 17/13 A2995 RMK AO2 RAB09E16 SLP140 P0000 60000 T01670128 10172 20122 58015
Loading
Personal Weather Stations






























Interactive Weather Map New forecast layout! Learn more

10-Day Weather Forecast

Advertisements
Track Severe Weather on mobile